Terminal Aerodrome Forecast
Issued by NWS Twin Cities, MN

Home | Current Version | Previous Version | Graphics & Text | Print | Product List | Glossary On
Versions: 1 2 3 4 5 6 7 8 9 10 11 12 13 14 15 16 17 18
000
FTUS43 KMPX 230500
TAFEAU
TAF
KEAU 230520Z 2306/2406 VRB03KT P6SM SKC
     FM230900 VRB03KT 2SM BR SKC
      TEMPO 2310/2313 1/2SM FG VV002
     FM231400 18005KT P6SM SKC
     FM240000 15005KT P6SM SCT250=

USA.gov is the U.S. government's official web portal to all federal, state and local government web resources and services.